sensor_id;sensor_type;location;lat;lon;timestamp;P1;durP1;ratioP1;P2;durP2;ratioP2
28068;SDS011;15382;47.578;8.086;2023-01-20T00:04:13;22.20;;;9.85;;
28068;SDS011;15382;47.578;8.086;2023-01-20T00:14:14;22.17;;;10.38;;
28068;SDS011;15382;47.578;8.086;2023-01-20T00:24:15;21.58;;;10.88;;
28068;SDS011;15382;47.578;8.086;2023-01-20T00:34:16;28.02;;;9.60;;
28068;SDS011;15382;47.578;8.086;2023-01-20T00:44:17;16.27;;;9.70;;
28068;SDS011;15382;47.578;8.086;2023-01-20T00:54:18;19.67;;;10.20;;
28068;SDS011;15382;47.578;8.086;2023-01-20T01:04:18;18.60;;;9.70;;
28068;SDS011;15382;47.578;8.086;2023-01-20T01:14:19;18.45;;;9.02;;
28068;SDS011;15382;47.578;8.086;2023-01-20T01:24:20;10.25;;;5.93;;
28068;SDS011;15382;47.578;8.086;2023-01-20T01:34:21;13.32;;;6.40;;
28068;SDS011;15382;47.578;8.086;2023-01-20T01:44:23;7.65;;;4.25;;
28068;SDS011;15382;47.578;8.086;2023-01-20T01:54:35;6.15;;;3.55;;
28068;SDS011;15382;47.578;8.086;2023-01-20T02:04:38;4.05;;;2.63;;
28068;SDS011;15382;47.578;8.086;2023-01-20T02:14:46;11.52;;;5.78;;
28068;SDS011;15382;47.578;8.086;2023-01-20T02:35:07;10.73;;;5.35;;
28068;SDS011;15382;47.578;8.086;2023-01-20T02:45:23;23.17;;;10.85;;
28068;SDS011;15382;47.578;8.086;2023-01-20T02:55:46;22.25;;;10.63;;
28068;SDS011;15382;47.578;8.086;2023-01-20T03:05:53;23.20;;;11.45;;
28068;SDS011;15382;47.578;8.086;2023-01-20T03:15:58;25.27;;;11.68;;
28068;SDS011;15382;47.578;8.086;2023-01-20T03:26:03;30.42;;;13.02;;
28068;SDS011;15382;47.578;8.086;2023-01-20T03:36:08;26.13;;;11.82;;
28068;SDS011;15382;47.578;8.086;2023-01-20T03:46:22;21.25;;;10.77;;
28068;SDS011;15382;47.578;8.086;2023-01-20T03:57:03;25.83;;;11.18;;
28068;SDS011;15382;47.578;8.086;2023-01-20T04:07:09;23.80;;;12.35;;
28068;SDS011;15382;47.578;8.086;2023-01-20T04:17:14;24.05;;;12.18;;
28068;SDS011;15382;47.578;8.086;2023-01-20T04:27:15;26.38;;;12.60;;
28068;SDS011;15382;47.578;8.086;2023-01-20T04:37:33;24.02;;;11.43;;
28068;SDS011;15382;47.578;8.086;2023-01-20T04:47:34;26.70;;;12.30;;
28068;SDS011;15382;47.578;8.086;2023-01-20T04:57:35;28.05;;;12.05;;
28068;SDS011;15382;47.578;8.086;2023-01-20T05:07:36;27.85;;;12.70;;
28068;SDS011;15382;47.578;8.086;2023-01-20T05:17:36;24.17;;;12.52;;
28068;SDS011;15382;47.578;8.086;2023-01-20T05:27:37;25.70;;;12.05;;
28068;SDS011;15382;47.578;8.086;2023-01-20T05:37:38;30.65;;;12.55;;
28068;SDS011;15382;47.578;8.086;2023-01-20T05:47:39;29.40;;;13.45;;
28068;SDS011;15382;47.578;8.086;2023-01-20T05:57:39;28.30;;;13.05;;
28068;SDS011;15382;47.578;8.086;2023-01-20T06:07:40;29.75;;;11.77;;
28068;SDS011;15382;47.578;8.086;2023-01-20T06:17:41;29.60;;;12.77;;
28068;SDS011;15382;47.578;8.086;2023-01-20T06:27:42;28.25;;;12.40;;
28068;SDS011;15382;47.578;8.086;2023-01-20T06:37:42;26.80;;;15.38;;
28068;SDS011;15382;47.578;8.086;2023-01-20T06:47:47;27.20;;;14.48;;
28068;SDS011;15382;47.578;8.086;2023-01-20T06:57:48;26.83;;;12.93;;
28068;SDS011;15382;47.578;8.086;2023-01-20T07:07:49;33.55;;;14.75;;
28068;SDS011;15382;47.578;8.086;2023-01-20T07:17:50;33.92;;;14.13;;
28068;SDS011;15382;47.578;8.086;2023-01-20T07:27:50;31.90;;;16.98;;
28068;SDS011;15382;47.578;8.086;2023-01-20T07:37:52;30.83;;;14.60;;
28068;SDS011;15382;47.578;8.086;2023-01-20T07:47:54;32.80;;;14.35;;
28068;SDS011;15382;47.578;8.086;2023-01-20T07:57:56;33.50;;;14.75;;
28068;SDS011;15382;47.578;8.086;2023-01-20T08:07:58;32.63;;;15.02;;
28068;SDS011;15382;47.578;8.086;2023-01-20T08:17:58;33.63;;;15.52;;
28068;SDS011;15382;47.578;8.086;2023-01-20T08:27:59;37.13;;;18.70;;
28068;SDS011;15382;47.578;8.086;2023-01-20T08:38:00;32.25;;;15.73;;
28068;SDS011;15382;47.578;8.086;2023-01-20T08:48:02;36.65;;;16.92;;
28068;SDS011;15382;47.578;8.086;2023-01-20T08:58:03;49.85;;;26.70;;
28068;SDS011;15382;47.578;8.086;2023-01-20T09:08:04;37.70;;;16.17;;
28068;SDS011;15382;47.578;8.086;2023-01-20T09:18:05;30.98;;;14.50;;
28068;SDS011;15382;47.578;8.086;2023-01-20T09:28:05;31.55;;;15.00;;
28068;SDS011;15382;47.578;8.086;2023-01-20T09:38:07;37.08;;;16.73;;
28068;SDS011;15382;47.578;8.086;2023-01-20T09:48:45;38.67;;;16.35;;
28068;SDS011;15382;47.578;8.086;2023-01-20T09:59:10;36.97;;;17.40;;
28068;SDS011;15382;47.578;8.086;2023-01-20T10:19:36;38.88;;;15.75;;
28068;SDS011;15382;47.578;8.086;2023-01-20T10:29:44;34.70;;;15.38;;
28068;SDS011;15382;47.578;8.086;2023-01-20T10:39:59;31.65;;;14.93;;
28068;SDS011;15382;47.578;8.086;2023-01-20T11:00:34;30.92;;;13.98;;
28068;SDS011;15382;47.578;8.086;2023-01-20T11:10:34;32.28;;;14.85;;
28068;SDS011;15382;47.578;8.086;2023-01-20T11:20:35;30.60;;;14.57;;
28068;SDS011;15382;47.578;8.086;2023-01-20T11:30:36;28.67;;;14.57;;
28068;SDS011;15382;47.578;8.086;2023-01-20T11:40:37;29.95;;;14.63;;
28068;SDS011;15382;47.578;8.086;2023-01-20T11:50:53;33.60;;;13.75;;
28068;SDS011;15382;47.578;8.086;2023-01-20T12:00:58;28.58;;;13.95;;
28068;SDS011;15382;47.578;8.086;2023-01-20T12:11:01;28.50;;;14.07;;
28068;SDS011;15382;47.578;8.086;2023-01-20T12:21:07;22.08;;;11.63;;
28068;SDS011;15382;47.578;8.086;2023-01-20T12:31:17;24.02;;;11.82;;
28068;SDS011;15382;47.578;8.086;2023-01-20T13:23:03;22.40;;;11.27;;
28068;SDS011;15382;47.578;8.086;2023-01-20T13:33:05;19.13;;;10.15;;
28068;SDS011;15382;47.578;8.086;2023-01-20T13:53:25;22.02;;;10.10;;
28068;SDS011;15382;47.578;8.086;2023-01-20T14:03:41;21.10;;;10.57;;
28068;SDS011;15382;47.578;8.086;2023-01-20T14:13:50;18.88;;;9.05;;
28068;SDS011;15382;47.578;8.086;2023-01-20T14:23:54;22.35;;;10.85;;
28068;SDS011;15382;47.578;8.086;2023-01-20T14:34:00;23.95;;;10.73;;
28068;SDS011;15382;47.578;8.086;2023-01-20T14:44:21;29.63;;;9.75;;
28068;SDS011;15382;47.578;8.086;2023-01-20T15:04:51;27.23;;;13.13;;
28068;SDS011;15382;47.578;8.086;2023-01-20T15:15:06;22.13;;;10.23;;
28068;SDS011;15382;47.578;8.086;2023-01-20T15:25:22;17.67;;;10.25;;
28068;SDS011;15382;47.578;8.086;2023-01-20T15:35:23;13.95;;;7.63;;
28068;SDS011;15382;47.578;8.086;2023-01-20T15:45:25;16.50;;;7.75;;
28068;SDS011;15382;47.578;8.086;2023-01-20T15:55:26;16.35;;;7.35;;
28068;SDS011;15382;47.578;8.086;2023-01-20T16:05:26;9.90;;;6.20;;
28068;SDS011;15382;47.578;8.086;2023-01-20T16:15:27;12.30;;;6.97;;
28068;SDS011;15382;47.578;8.086;2023-01-20T16:25:28;15.98;;;7.32;;
28068;SDS011;15382;47.578;8.086;2023-01-20T16:35:29;20.50;;;9.98;;
28068;SDS011;15382;47.578;8.086;2023-01-20T16:45:30;34.10;;;14.23;;
28068;SDS011;15382;47.578;8.086;2023-01-20T16:55:32;16.95;;;7.55;;
28068;SDS011;15382;47.578;8.086;2023-01-20T17:05:33;20.50;;;9.27;;
28068;SDS011;15382;47.578;8.086;2023-01-20T17:15:34;16.70;;;9.00;;
28068;SDS011;15382;47.578;8.086;2023-01-20T17:25:39;23.27;;;9.95;;
28068;SDS011;15382;47.578;8.086;2023-01-20T17:35:42;23.98;;;11.02;;
28068;SDS011;15382;47.578;8.086;2023-01-20T17:45:43;98.53;;;31.83;;
28068;SDS011;15382;47.578;8.086;2023-01-20T17:55:44;34.55;;;16.13;;
28068;SDS011;15382;47.578;8.086;2023-01-20T18:05:45;23.33;;;9.70;;
28068;SDS011;15382;47.578;8.086;2023-01-20T18:15:45;27.45;;;14.52;;
28068;SDS011;15382;47.578;8.086;2023-01-20T18:25:51;27.63;;;13.68;;
28068;SDS011;15382;47.578;8.086;2023-01-20T18:35:53;29.55;;;13.57;;
28068;SDS011;15382;47.578;8.086;2023-01-20T18:45:54;24.02;;;11.20;;
28068;SDS011;15382;47.578;8.086;2023-01-20T18:55:59;54.78;;;22.33;;
28068;SDS011;15382;47.578;8.086;2023-01-20T19:06:01;32.67;;;13.52;;
28068;SDS011;15382;47.578;8.086;2023-01-20T19:16:07;21.33;;;9.88;;
28068;SDS011;15382;47.578;8.086;2023-01-20T19:26:10;23.83;;;12.23;;
28068;SDS011;15382;47.578;8.086;2023-01-20T19:36:14;22.02;;;10.07;;
28068;SDS011;15382;47.578;8.086;2023-01-20T19:46:16;29.40;;;11.90;;
28068;SDS011;15382;47.578;8.086;2023-01-20T19:56:19;27.88;;;11.05;;
28068;SDS011;15382;47.578;8.086;2023-01-20T20:06:33;24.73;;;11.88;;
28068;SDS011;15382;47.578;8.086;2023-01-20T20:16:36;23.88;;;10.80;;
28068;SDS011;15382;47.578;8.086;2023-01-20T20:26:37;25.75;;;10.85;;
28068;SDS011;15382;47.578;8.086;2023-01-20T20:36:38;31.35;;;11.00;;
28068;SDS011;15382;47.578;8.086;2023-01-20T20:46:39;24.40;;;10.93;;
28068;SDS011;15382;47.578;8.086;2023-01-20T20:56:40;25.30;;;11.02;;
28068;SDS011;15382;47.578;8.086;2023-01-20T21:06:41;21.33;;;10.85;;
28068;SDS011;15382;47.578;8.086;2023-01-20T21:16:42;19.10;;;10.13;;
28068;SDS011;15382;47.578;8.086;2023-01-20T21:26:43;20.25;;;9.45;;
28068;SDS011;15382;47.578;8.086;2023-01-20T21:36:44;26.25;;;9.20;;
28068;SDS011;15382;47.578;8.086;2023-01-20T21:46:45;22.30;;;8.48;;
28068;SDS011;15382;47.578;8.086;2023-01-20T21:56:46;16.38;;;7.90;;
28068;SDS011;15382;47.578;8.086;2023-01-20T22:06:47;20.52;;;8.48;;
28068;SDS011;15382;47.578;8.086;2023-01-20T22:16:48;13.52;;;6.93;;
28068;SDS011;15382;47.578;8.086;2023-01-20T22:26:49;20.38;;;7.88;;
28068;SDS011;15382;47.578;8.086;2023-01-20T22:36:50;16.10;;;8.18;;
28068;SDS011;15382;47.578;8.086;2023-01-20T22:46:51;17.17;;;6.85;;
28068;SDS011;15382;47.578;8.086;2023-01-20T22:56:51;14.65;;;6.85;;
28068;SDS011;15382;47.578;8.086;2023-01-20T23:06:52;14.10;;;6.57;;
28068;SDS011;15382;47.578;8.086;2023-01-20T23:16:53;16.98;;;7.65;;
28068;SDS011;15382;47.578;8.086;2023-01-20T23:26:54;14.63;;;6.85;;
28068;SDS011;15382;47.578;8.086;2023-01-20T23:36:54;15.10;;;7.68;;
28068;SDS011;15382;47.578;8.086;2023-01-20T23:46:56;12.27;;;6.72;;
28068;SDS011;15382;47.578;8.086;2023-01-20T23:56:57;14.93;;;6.45;;
